Kohat, Pakistan
Current Conditions -  °F | °C
As of 5:00 AM on Thursday 23 Oct 2014 (Local Time) from OPPS Reporting Station
Haze Haze  
Wind Chill: 66°   Ceiling: Unl
Heat Index: 66°   Visibility: 2.5mi
Dew Point: 55°   Wind: 0mph
Humidity: 68%   Direction: NA
Pressure: NA   Gusts: NA
Location:  33.6°N, 71.44°E
Report Text: OPPS 230000Z 00000KT 4000 BR SCT200 19/13 Q1015.3
Loading
Personal Weather Stations






























Interactive Weather Map
Tropical Storm Tracking
New forecast layout! Learn more

10-Day Weather Forecast

Advertisements
Track Severe Weather on mobile